Flight Track Log - Related Links

Times and Time Zones

All times are in EDT time to prevent confusion due to time zone crossing. See the QTR233 flight status page for this flight to view local times or setup timezone preferences in your user account.

Time Position Orientation Groundspeed Altitude Reporting Facility
EDT Latitude Longitude Course Direction KTS MPH feet Rate Location/Type
Sun 07:45:15 PM 28.5373 76.3254 267° West  Level Estimated
Sun 07:46:15 PM 28.5322 76.2010 267° West  Level Estimated
Sun 07:47:15 PM 28.5270 76.0766 267° West  Level Estimated
Sun 07:48:15 PM 28.5217 75.9523 267° West  Level Estimated
Sun 07:49:15 PM 28.5163 75.8279 267° West  Level Estimated
Sun 07:50:15 PM 28.5107 75.7036 267° West  Level Estimated
Sun 07:51:15 PM 28.5051 75.5793 267° West  Level Estimated
Sun 07:52:15 PM 28.4993 75.4549 267° West  Level Estimated
Sun 07:53:15 PM 28.4934 75.3307 267° West  Level Estimated
Sun 07:54:15 PM 28.4874 75.2064 267° West  Level Estimated
Sun 07:55:15 PM 28.4813 75.0821 267° West  Level Estimated
Sun 07:56:15 PM 28.4751 74.9578 267° West  Level Estimated
Sun 07:57:15 PM 28.4688 74.8336 267° West  Level Estimated
Sun 07:58:15 PM 28.4624 74.7094 267° West  Level Estimated
Sun 07:59:15 PM 28.4558 74.5852 267° West  Level Estimated
Sun 08:00:15 PM 28.4491 74.4610 266° West  Level Estimated
Sun 08:01:15 PM 28.4424 74.3368 266° West  Level Estimated
Sun 08:02:15 PM 28.4355 74.2126 266° West  Level Estimated
Sun 08:03:15 PM 28.4284 74.0885 266° West  Level Estimated
Sun 08:04:15 PM 28.4213 73.9644 266° West  Level Estimated
Sun 08:05:15 PM 28.4141 73.8403 266° West  Level Estimated
Sun 08:06:15 PM 28.4068 73.7162 266° West  Level Estimated
Sun 08:07:15 PM 28.3993 73.5921 266° West  Level Estimated
Sun 08:08:15 PM 28.3917 73.4680 266° West  Level Estimated
Sun 08:09:15 PM 28.3841 73.3440 266° West  Level Estimated
Sun 08:10:15 PM 28.3763 73.2200 266° West  Level Estimated
Sun 08:11:15 PM 28.3684 73.0960 266° West  Level Estimated
Sun 08:12:15 PM 28.3603 72.9720 266° West  Level Estimated
Sun 08:13:15 PM 28.3522 72.8480 266° West  Level Estimated
Sun 08:14:15 PM 28.3440 72.7241 266° West  Level Estimated
Sun 08:15:15 PM 28.3356 72.6001 266° West  Level Estimated
Sun 08:16:15 PM 28.3272 72.4762 266° West  Level Estimated
Sun 08:17:15 PM 28.3186 72.3523 265° West  Level Estimated
Sun 08:18:15 PM 28.3099 72.2284 265° West  Level Estimated
Sun 08:19:15 PM 28.3011 72.1046 265° West  Level Estimated
Sun 08:20:15 PM 28.2922 71.9808 265° West  Level Estimated
Sun 08:21:15 PM 28.2831 71.8570 265° West  Level Estimated
Sun 08:22:15 PM 28.2740 71.7332 265° West  Level Estimated
Sun 08:23:15 PM 28.2647 71.6094 265° West  Level Estimated
Sun 08:24:15 PM 28.2554 71.4856 265° West  Level Estimated
Sun 08:25:15 PM 28.2459 71.3619 265° West  Level Estimated
Sun 08:26:15 PM 28.2363 71.2382 265° West  Level Estimated
Sun 08:27:15 PM 28.2267 71.1145 265° West  Level Estimated
Sun 08:28:15 PM 28.2169 70.9909 265° West  Level Estimated
Sun 08:29:15 PM 28.2069 70.8673 265° West  Level Estimated
Sun 08:30:15 PM 28.1969 70.7437 265° West  Level Estimated
Sun 08:31:15 PM 28.1868 70.6201 265° West  Level Estimated
Sun 08:32:15 PM 28.1765 70.4965 265° West  Level Estimated
Sun 08:33:15 PM 28.1661 70.3730 265° West  Level Estimated
Sun 08:34:15 PM 28.1557 70.2495 264° West  Level Estimated
Sun 08:35:15 PM 28.1451 70.1260 264° West  Level Estimated
Sun 08:36:15 PM 28.1344 70.0025 264° West  Level Estimated
Sun 08:37:15 PM 28.1236 69.8791 264° West  Level Estimated
Sun 08:38:15 PM 28.1127 69.7556 264° West  Level Estimated
Sun 08:39:15 PM 28.1017 69.6322 264° West  Level Estimated
Sun 08:40:15 PM 28.0905 69.5089 264° West  Level Estimated
Sun 08:41:15 PM 28.0793 69.3855 264° West  Level Estimated
Sun 08:42:15 PM 28.0679 69.2622 264° West  Level Estimated
Sun 08:43:15 PM 28.0565 69.1389 264° West  Level Estimated
Sun 08:44:15 PM 28.0449 69.0157 264° West  Level Estimated
Sun 08:45:15 PM 28.0332 68.8924 264° West  Level Estimated
Sun 08:46:15 PM 28.0214 68.7692 264° West  Level Estimated
Sun 08:47:15 PM 28.0095 68.6460 264° West  Level Estimated
Sun 08:48:15 PM 27.9975 68.5229 264° West  Level Estimated
Sun 08:49:15 PM 27.9854 68.3998 264° West  Level Estimated
Sun 08:50:15 PM 27.9731 68.2767 264° West  Level Estimated
Sun 08:51:15 PM 27.9608 68.1536 263° West  Level Estimated
Sun 08:52:15 PM 27.9484 68.0306 263° West  Level Estimated
Sun 08:53:15 PM 27.9358 67.9076 263° West  Level Estimated
Sun 08:54:15 PM 27.9231 67.7846 263° West  Level Estimated
Sun 08:55:15 PM 27.9103 67.6616 263° West  Level Estimated
Sun 08:56:15 PM 27.8974 67.5387 263° West  Level Estimated
Sun 08:57:15 PM 27.8845 67.4158 263° West  Level Estimated
Sun 08:58:15 PM 27.8713 67.2929 263° West  Level Estimated
Sun 08:59:15 PM 27.8581 67.1701 263° West  Level Estimated
Sun 09:00:15 PM 27.8448 67.0473 263° West  Level Estimated
Sun 09:01:15 PM 27.8314 66.9245 263° West  Level Estimated
Sun 09:02:15 PM 27.8178 66.8018 263° West  Level Estimated
Sun 09:03:15 PM 27.8042 66.6790 263° West  Level Estimated
Sun 09:04:15 PM 27.7904 66.5564 263° West  Level Estimated
Sun 09:05:15 PM 27.7765 66.4337 263° West  Level Estimated
Sun 09:06:15 PM 27.7626 66.3111 263° West  Level Estimated
Sun 09:07:15 PM 27.7485 66.1885 263° West  Level Estimated
Sun 09:08:15 PM 27.7343 66.0659 263° West  Level Estimated
Sun 09:09:15 PM 27.7200 65.9434 262° West  Level Estimated
Sun 09:10:15 PM 27.7056 65.8209 262° West  Level Estimated
Sun 09:11:15 PM 27.6911 65.6985 262° West  Level Estimated
Sun 09:12:15 PM 27.6764 65.5760 262° West  Level Estimated
Sun 09:13:15 PM 27.6617 65.4536 262° West  Level Estimated
Sun 09:14:15 PM 27.6469 65.3313 262° West  Level Estimated
Sun 09:15:15 PM 27.6319 65.2089 262° West  Level Estimated
Sun 09:16:15 PM 27.6169 65.0866 262° West  Level Estimated
Sun 09:17:15 PM 27.6017 64.9644 262° West  Level Estimated
Sun 09:18:15 PM 27.5864 64.8421 262° West  Level Estimated
Sun 09:19:15 PM 27.5711 64.7199 262° West  Level Estimated
Sun 09:20:15 PM 27.5556 64.5978 262° West  Level Estimated
Sun 09:21:15 PM 27.5400 64.4757 262° West  Level Estimated
Sun 09:22:15 PM 27.5243 64.3536 262° West  Level Estimated
Sun 09:23:15 PM 27.5085 64.2315 262° West  Level Estimated
Sun 09:24:15 PM 27.4926 64.1095 262° West  Level Estimated
Sun 09:25:15 PM 27.4766 63.9875 262° West  Level Estimated
Sun 09:26:15 PM 27.4604 63.8656 261° West  Level Estimated
Sun 09:27:15 PM 27.4442 63.7436 261° West  Level Estimated
Sun 09:28:15 PM 27.4279 63.6218 261° West  Level Estimated
Sun 09:29:15 PM 27.4114 63.4999 261° West  Level Estimated
Sun 09:30:15 PM 27.3949 63.3781 261° West  Level Estimated
Sun 09:31:15 PM 27.3783 63.2563 261° West  Level Estimated
Sun 09:32:15 PM 27.3615 63.1346 261° West  Level Estimated
Sun 09:33:15 PM 27.3446 63.0129 261° West  Level Estimated
Sun 09:34:15 PM 27.3277 62.8913 261° West  Level Estimated
Sun 09:35:15 PM 27.3106 62.7696 261° West  Level Estimated
Sun 09:36:15 PM 27.2934 62.6480 261° West  Level Estimated
Sun 09:37:15 PM 27.2761 62.5265 261° West  Level Estimated
Sun 09:38:15 PM 27.2587 62.4050 261° West  Level Estimated
Sun 09:39:15 PM 27.2412 62.2835 261° West  Level Estimated
Sun 09:40:15 PM 27.2236 62.1621 261° West  Level Estimated
Sun 09:41:15 PM 27.2059 62.0407 261° West  Level Estimated
Sun 09:42:15 PM 27.1881 61.9193 261° West  Level Estimated
Sun 09:43:15 PM 27.1702 61.7980 261° West  Level Estimated
Sun 09:44:15 PM 27.1522 61.6767 260° West  Level Estimated
Sun 09:45:15 PM 27.1341 61.5555 260° West  Level Estimated
Sun 09:46:15 PM 27.1159 61.4343 260° West  Level Estimated
Sun 09:47:15 PM 27.0975 61.3131 260° West  Level Estimated
Sun 09:48:15 PM 27.0791 61.1920 260° West  Level Estimated
Sun 09:49:15 PM 27.0606 61.0709 260° West  Level Estimated
Sun 09:50:15 PM 27.0419 60.9499 260° West  Level Estimated
Sun 09:51:15 PM 27.0232 60.8289 260° West  Level Estimated
Sun 09:52:15 PM 27.0043 60.7079 260° West  Level Estimated
Sun 09:53:15 PM 26.9854 60.5870 260° West  Level Estimated
Sun 09:54:15 PM 26.9663 60.4661 260° West  Level Estimated
Sun 09:55:15 PM 26.9472 60.3453 260° West  Level Estimated
Sun 09:56:15 PM 26.9279 60.2245 260° West  Level Estimated
Sun 09:57:15 PM 26.9086 60.1038 260° West  Level Estimated
Sun 09:58:15 PM 26.8891 59.9831 260° West  Level Estimated
Sun 09:59:15 PM 26.8695 59.8624 260° West  Level Estimated
Sun 10:00:15 PM 26.8499 59.7418 260° West  Level Estimated
Sun 10:01:15 PM 26.8301 59.6212 260° West  Level Estimated
Sun 10:02:15 PM 26.8102 59.5006 260° West  Level Estimated
Sun 10:03:15 PM 26.7903 59.3801 259° West  Level Estimated
Sun 10:04:15 PM 26.7702 59.2597 259° West  Level Estimated
Sun 10:05:15 PM 26.7500 59.1393 259° West  Level Estimated
Sun 10:06:15 PM 26.7297 59.0189 259° West  Level Estimated
Sun 10:07:15 PM 26.7093 58.8985 259° West  Level Estimated
Sun 10:08:15 PM 26.6889 58.7783 259° West  Level Estimated
Sun 10:09:15 PM 26.6683 58.6580 259° West  Level Estimated
Sun 10:10:15 PM 26.6476 58.5378 259° West  Level Estimated
Sun 10:11:15 PM 26.6268 58.4177 259° West  Level Estimated
Sun 10:12:15 PM 26.6059 58.2976 259° West  Level Estimated
Sun 10:13:15 PM 26.5849 58.1775 259° West  Level Estimated
Sun 10:14:15 PM 26.5638 58.0574 259° West  Level Estimated
Sun 10:15:15 PM 26.5426 57.9375 259° West  Level Estimated
Sun 10:16:15 PM 26.5213 57.8175 259° West  Level Estimated
Sun 10:17:15 PM 26.4999 57.6976 259° West  Level Estimated
Sun 10:18:15 PM 26.4785 57.5778 259° West  Level Estimated
Sun 10:19:15 PM 26.4569 57.4580 259° West  Level Estimated
Sun 10:20:15 PM 26.4352 57.3382 259° West  Level Estimated
Sun 10:21:15 PM 26.4134 57.2185 258° West  Level Estimated
Sun 10:22:15 PM 26.3915 57.0989 258° West  Level Estimated
Sun 10:23:15 PM 26.3695 56.9792 258° West  Level Estimated
Sun 10:24:15 PM 26.3474 56.8597 258° West  Level Estimated
Sun 10:25:15 PM 26.3252 56.7401 258° West  Level Estimated
Sun 10:26:15 PM 26.3029 56.6207 258° West  Level Estimated
Sun 10:27:15 PM 26.2805 56.5012 258° West  Level Estimated
Sun 10:28:15 PM 26.2581 56.3818 258° West  Level Estimated
Sun 10:29:15 PM 26.2355 56.2625 258° West  Level Estimated
Sun 10:30:15 PM 26.2128 56.1432 258° West  Level Estimated
Sun 10:31:15 PM 26.1900 56.0239 258° West  Level Estimated
Sun 10:32:15 PM 26.1671 55.9047 258° West  Level Estimated
Sun 10:33:15 PM 26.1442 55.7856 258° West  Level Estimated
Sun 10:34:15 PM 26.1211 55.6665 258° West  Level Estimated
Sun 10:35:15 PM 26.0979 55.5474 258° West  Level Estimated
Sun 10:36:15 PM 26.0746 55.4284 258° West  Level Estimated
Sun 10:37:15 PM 26.0513 55.3094 258° West  Level Estimated
Sun 10:38:15 PM 26.0278 55.1905 258° West  Level Estimated
Sun 10:39:15 PM 26.0042 55.0716 258° West  Level Estimated
Sun 10:40:15 PM 25.9806 54.9528 257° West  Level Estimated
Sun 10:41:15 PM 25.9568 54.8340 257° West  Level Estimated
Sun 10:42:15 PM 25.9330 54.7153 257° West  Level Estimated
Sun 10:43:15 PM 25.9090 54.5966 257° West  Level Estimated
Sun 10:44:15 PM 25.8850 54.4780 257° West  Level Estimated
Sun 10:45:15 PM 25.8608 54.3594 257° West  Level Estimated
Sun 10:46:15 PM 25.8366 54.2408 257° West  Level Estimated
Sun 10:47:15 PM 25.8123 54.1223 257° West  Level Estimated
Sun 10:48:15 PM 25.7878 54.0039 257° West  Level Estimated
Sun 10:49:15 PM 25.7633 53.8855 257° West  Level Estimated
Sun 10:50:15 PM 25.7387 53.7672 257° West  Level Estimated
Sun 10:51:15 PM 25.7139 53.6489 257° West  Level Estimated
Sun 10:52:15 PM 25.6891 53.5306 257° West  Level Estimated
Sun 10:53:15 PM 25.6642 53.4124 257° West  Level Estimated
Sun 10:54:15 PM 25.6392 53.2943 257° West  Level Estimated
Sun 10:55:15 PM 25.6141 53.1762 257° West  Level Estimated
Sun 10:56:15 PM 25.5889 53.0582 257° West  Level Estimated
Sun 10:57:15 PM 25.5636 52.9402 257° West  Level Estimated
Sun 10:58:15 PM 25.5382 52.8222 257° West  Level Estimated
Sun 10:59:15 PM 25.5128 52.7043 257° West  Level Estimated
Sun 11:00:15 PM 25.4872 52.5865 256° West  Level Estimated
Sun 11:01:15 PM 25.4615 52.4687 256° West  Level Estimated
Sun 11:02:15 PM 25.4358 52.3509 256° West  Level Estimated
Sun 11:03:15 PM 25.4099 52.2332 256° West  Level Estimated
Sun 11:04:15 PM 25.3839 52.1156 256° West  Level Estimated
Sun 11:05:15 PM 25.3579 51.9980 256° West  Level Estimated
Sun 11:06:15 PM 25.3318 51.8805 256° West  Level Estimated
Sun 11:07:15 PM 25.3055 51.7630 256° West  Level Estimated
Sun 11:08:15 PM 25.2792 51.6455 256° West  Level Estimated
Sun 11:09:15 PM 25.2528 51.5281 76° East  Level Estimated
Sun 11:10:15 PM 25.2792 51.6455 256° West  Level Estimated
Sun 11:11:15 PM 25.2528 51.5281 76° East  Level Estimated
Sun 11:12:15 PM 25.2792 51.6455 256° West  Level Estimated
Sun 11:13:15 PM 25.2528 51.5281 76° East  Level Estimated
Sun 11:14:15 PM 25.2792 51.6455 256° West  Level Estimated
Sun 11:15:15 PM 25.2528 51.5281 76° East  Level Estimated
Sun 11:16:15 PM 25.2792 51.6455 256° West  Level Estimated
Sun 11:17:15 PM 25.2528 51.5281 76° East  Level Estimated
Sun 11:18:15 PM 25.2792 51.6455 256° West  Level Estimated
Sun 11:19:15 PM 25.2528 51.5281 76° East  Level Estimated
Sun 11:20:15 PM 25.2792 51.6455 256° West  Level Estimated
Sun 11:21:15 PM 25.2528 51.5281 76° East  Level Estimated
Sun 11:22:15 PM 25.2792 51.6455 256° West  Level Estimated
Sun 11:23:15 PM 25.2528 51.5281 76° East  Level Estimated
Sun 11:24:15 PM 25.2792 51.6455 76° East  Level Estimated

Login

Don't have an account? Register now (free) for customized features, flight alerts, and more!